Terminal Aerodrome Forecast
Issued by NWS Jackson, MS

Home | Current Version | Previous Version | Text Only | Print | Product List | Glossary On
Versions: 1 2 3 4 5 6 7 8 9 10 11 12 13 14 15 16
000
FTUS44 KJAN 041506 AAB
TAFHBG
TAF AMD
KHBG 041506Z 0415/0512 27004KT P6SM BKN020
     FM041630 VRB05KT P6SM FEW020 SCT030
     FM041730 VRB05KT P6SM VCTS SCT030 BKN050CB
     FM050000 VRB04KT P6SM FEW030 SCT050=

USA.gov is the U.S. government's official web portal to all federal, state and local government web resources and services.